Time;durP1;ratioP1;P1;durP2;ratioP2;P2;SDS_P1;SDS_P2;PMS_P1;PMS_P2;Temp;Humidity;BMP_temperature;BMP_pressure;BME280_temperature;BME280_humidity;BME280_pressure;Samples;Min_cycle;Max_cycle;Signal;HPM_P1;HPM_P2
2022/06/20 00:01:45;;;;;;;8.38;6.45;;;16.10;99.90;;;;;;5075388;28;20384;-75
2022/06/20 00:04:16;;;;;;;9.13;6.75;;;16.00;99.90;;;;;;5074474;28;20045;-75
2022/06/20 00:06:44;;;;;;;9.13;6.78;;;16.00;99.90;;;;;;5075953;28;20036;-74
2022/06/20 00:09:12;;;;;;;10.35;7.85;;;16.00;99.90;;;;;;5075558;28;20102;-75
2022/06/20 00:11:45;;;;;;;7.05;6.32;;;16.00;99.90;;;;;;5075551;28;20052;-75
2022/06/20 00:14:15;;;;;;;7.50;6.70;;;16.00;99.90;;;;;;5075757;28;20090;-75
2022/06/20 00:16:43;;;;;;;7.20;6.45;;;15.90;99.90;;;;;;5075785;28;20052;-76
2022/06/20 00:19:10;;;;;;;7.43;6.28;;;15.80;99.90;;;;;;5075881;28;20033;-75
2022/06/20 00:21:39;;;;;;;7.85;6.55;;;15.80;99.90;;;;;;5075595;28;20447;-74
2022/06/20 00:24:06;;;;;;;8.52;6.45;;;15.80;99.90;;;;;;5075439;28;20064;-75
2022/06/20 00:26:35;;;;;;;8.75;6.50;;;15.80;99.90;;;;;;5075354;28;20044;-74
2022/06/20 00:29:05;;;;;;;8.82;6.38;;;15.80;99.90;;;;;;5075111;28;20063;-73
2022/06/20 00:31:32;;;;;;;7.93;6.13;;;15.80;99.90;;;;;;5064606;28;20544;-75
2022/06/20 00:34:00;;;;;;;8.80;5.97;;;15.80;99.90;;;;;;5076416;28;20044;-75
2022/06/20 00:36:27;;;;;;;9.75;5.90;;;15.80;99.90;;;;;;5076657;28;20383;-74
2022/06/20 00:38:57;;;;;;;7.25;6.00;;;15.70;99.90;;;;;;5076580;28;20044;-75
2022/06/20 00:41:29;;;;;;;7.35;5.70;;;15.70;99.90;;;;;;5076575;28;20037;-74
2022/06/20 00:43:57;;;;;;;7.65;6.18;;;15.70;99.90;;;;;;5075860;28;20040;-74
2022/06/20 00:46:34;;;;;;;9.48;6.05;;;15.70;99.90;;;;;;5075292;28;20048;-75
2022/06/20 00:49:10;;;;;;;7.85;5.65;;;15.60;99.90;;;;;;5074994;28;20567;-75
2022/06/20 00:51:42;;;;;;;7.10;6.10;;;15.60;99.90;;;;;;5073386;28;20048;-75
2022/06/20 00:54:17;;;;;;;8.23;5.90;;;15.60;99.90;;;;;;5074566;28;20362;-75
2022/06/20 00:56:54;;;;;;;7.82;5.97;;;15.50;99.90;;;;;;5074718;28;20041;-76
2022/06/20 00:59:27;;;;;;;8.25;6.47;;;15.50;99.90;;;;;;5074563;28;20053;-75
2022/06/20 01:01:56;;;;;;;9.77;6.00;;;15.50;99.90;;;;;;5056915;28;20571;-75
2022/06/20 01:04:29;;;;;;;7.50;5.60;;;15.50;99.90;;;;;;5074150;28;20052;-76
2022/06/20 01:06:58;;;;;;;10.98;8.27;;;15.50;99.90;;;;;;5057126;28;20106;-76
2022/06/20 01:09:30;;;;;;;8.43;5.80;;;15.40;99.90;;;;;;5073063;28;20495;-75
2022/06/20 01:12:02;;;;;;;8.98;5.95;;;15.30;99.90;;;;;;5077982;28;20037;-74
2022/06/20 01:14:34;;;;;;;6.63;5.70;;;15.20;99.90;;;;;;5074212;28;20594;-74
2022/06/20 01:17:05;;;;;;;9.40;6.78;;;15.20;99.90;;;;;;5075270;28;20037;-76
2022/06/20 01:19:47;;;;;;;8.15;5.80;;;15.20;99.90;;;;;;5074713;28;20515;-74
2022/06/20 01:22:30;;;;;;;7.68;6.22;;;15.20;99.90;;;;;;5056576;28;20041;-74
2022/06/20 01:25:10;;;;;;;9.23;6.05;;;15.10;99.90;;;;;;5075377;28;20056;-75
2022/06/20 01:27:42;;;;;;;9.43;5.93;;;15.00;99.90;;;;;;5076189;28;20075;-74
2022/06/20 01:30:10;;;;;;;9.60;6.25;;;15.10;99.90;;;;;;5073730;28;20072;-74
2022/06/20 01:32:39;;;;;;;6.20;5.47;;;15.10;99.90;;;;;;5074208;28;20059;-75
2022/06/20 01:35:12;;;;;;;9.88;5.78;;;15.00;99.90;;;;;;5074115;28;20039;-74
2022/06/20 01:37:42;;;;;;;9.50;6.00;;;14.90;99.90;;;;;;5074628;28;20132;-75
2022/06/20 01:40:12;;;;;;;8.68;5.80;;;15.00;99.90;;;;;;5055705;28;20484;-75
2022/06/20 01:42:41;;;;;;;9.55;6.43;;;15.00;99.90;;;;;;5074090;28;20442;-76
2022/06/20 01:47:53;;;;;;;7.53;5.75;;;14.90;99.90;;;;;;5072560;28;20506;-75
2022/06/20 01:50:21;;;;;;;7.22;5.95;;;14.90;99.90;;;;;;5073235;28;20036;-76
2022/06/20 01:52:48;;;;;;;7.18;6.45;;;15.00;99.90;;;;;;5073413;28;20094;-74
2022/06/20 01:55:19;;;;;;;7.75;6.03;;;14.90;99.90;;;;;;5073745;28;20395;-76
2022/06/20 01:57:52;;;;;;;8.55;6.55;;;14.90;99.90;;;;;;5056027;28;20049;-75
2022/06/20 02:00:22;;;;;;;8.48;6.28;;;14.80;99.90;;;;;;5102238;22;20053;-73
2022/06/20 02:02:53;;;;;;;8.25;6.43;;;14.70;99.90;;;;;;5090444;28;20095;-74
2022/06/20 02:05:25;;;;;;;9.35;6.68;;;14.70;99.90;;;;;;5090857;28;20044;-74
2022/06/20 02:07:53;;;;;;;9.93;6.63;;;14.70;99.90;;;;;;5089108;28;20044;-73
2022/06/20 02:10:26;;;;;;;7.20;6.50;;;14.70;99.90;;;;;;5081680;28;20096;-73
2022/06/20 02:12:57;;;;;;;8.35;6.55;;;14.70;99.90;;;;;;5087410;28;20048;-73
2022/06/20 02:15:25;;;;;;;12.52;6.15;;;14.70;99.90;;;;;;5071528;28;20408;-75
2022/06/20 02:17:52;;;;;;;7.03;6.32;;;14.70;99.90;;;;;;5057037;28;20075;-74
2022/06/20 02:20:24;;;;;;;8.77;6.50;;;14.60;99.90;;;;;;5073276;28;20112;-74
2022/06/20 02:22:53;;;;;;;10.68;6.70;;;14.60;99.90;;;;;;5073816;28;20041;-74
2022/06/20 02:25:24;;;;;;;7.95;6.70;;;14.60;99.90;;;;;;5073418;28;20041;-74
2022/06/20 02:27:54;;;;;;;9.23;6.40;;;14.50;99.90;;;;;;5058854;28;20544;-74
2022/06/20 02:30:22;;;;;;;8.15;6.93;;;14.60;99.90;;;;;;5077300;28;20059;-73
2022/06/20 02:32:55;;;;;;;14.63;6.90;;;14.50;99.90;;;;;;5059337;28;20052;-74
2022/06/20 02:35:23;;;;;;;8.82;6.88;;;14.50;99.90;;;;;;5077422;28;20041;-73
2022/06/20 02:37:51;;;;;;;9.30;7.07;;;14.50;99.90;;;;;;5059442;28;20510;-74
2022/06/20 02:40:21;;;;;;;12.02;7.32;;;14.40;99.90;;;;;;5077847;28;20067;-75
2022/06/20 02:42:53;;;;;;;7.43;6.35;;;14.40;99.90;;;;;;5058871;28;20491;-74
2022/06/20 02:45:25;;;;;;;9.90;6.57;;;14.40;99.90;;;;;;5077737;28;20506;-74
2022/06/20 02:47:57;;;;;;;10.10;6.95;;;14.40;99.90;;;;;;5077656;28;20109;-74
2022/06/20 02:50:29;;;;;;;9.52;6.60;;;14.40;99.90;;;;;;5058956;28;20051;-75
2022/06/20 02:53:01;;;;;;;8.70;6.40;;;14.40;99.90;;;;;;5076758;28;20414;-73
2022/06/20 02:55:30;;;;;;;10.15;6.60;;;14.30;99.90;;;;;;5077295;28;20044;-74
2022/06/20 02:58:01;;;;;;;9.80;7.13;;;14.30;99.90;;;;;;5077047;28;20106;-74
2022/06/20 03:00:36;;;;;;;8.65;7.43;;;14.30;99.90;;;;;;5076695;28;20114;-73
2022/06/20 03:03:09;;;;;;;8.20;6.72;;;14.30;99.90;;;;;;5059117;28;20072;-75
2022/06/20 03:05:37;;;;;;;10.20;6.47;;;14.30;99.90;;;;;;5056688;28;20550;-73
2022/06/20 03:08:04;;;;;;;9.95;6.30;;;14.30;99.90;;;;;;5056865;28;20096;-74
2022/06/20 03:10:36;;;;;;;10.18;6.25;;;14.30;99.90;;;;;;5057042;28;20463;-73
2022/06/20 03:13:04;;;;;;;8.48;6.55;;;14.40;99.90;;;;;;5056527;28;20458;-73
2022/06/20 03:15:33;;;;;;;11.02;6.72;;;14.40;99.90;;;;;;5057572;28;20041;-73
2022/06/20 03:18:00;;;;;;;10.25;7.13;;;14.40;99.90;;;;;;5058699;28;20124;-74
2022/06/20 03:20:28;;;;;;;7.60;6.10;;;14.30;99.90;;;;;;5076174;28;20032;-75
2022/06/20 03:23:02;;;;;;;8.50;6.50;;;14.30;99.90;;;;;;5057786;28;20057;-74
2022/06/20 03:25:31;;;;;;;8.43;6.15;;;14.30;99.90;;;;;;5067229;28;20052;-73
2022/06/20 03:27:58;;;;;;;7.75;6.18;;;14.40;99.90;;;;;;5075543;28;20049;-73
2022/06/20 03:30:30;;;;;;;8.57;6.70;;;14.40;99.90;;;;;;5076181;28;20086;-74
2022/06/20 03:33:00;;;;;;;9.07;6.43;;;14.30;99.90;;;;;;5076242;28;20044;-74
2022/06/20 03:35:31;;;;;;;8.80;7.20;;;14.40;99.90;;;;;;5076463;28;20098;-74
2022/06/20 03:37:59;;;;;;;12.38;6.70;;;14.50;99.90;;;;;;5076764;28;20037;-73
2022/06/20 03:40:27;;;;;;;8.48;6.40;;;14.50;99.90;;;;;;5058514;28;20044;-73
2022/06/20 03:42:57;;;;;;;7.22;6.38;;;14.60;99.90;;;;;;5058080;28;20135;-74
2022/06/20 03:45:28;;;;;;;7.07;5.63;;;14.60;99.90;;;;;;5075945;28;20070;-73
2022/06/20 03:48:02;;;;;;;7.68;6.10;;;14.70;99.90;;;;;;5076304;28;20119;-73
2022/06/20 03:50:35;;;;;;;10.73;6.13;;;14.80;99.90;;;;;;5058568;28;20091;-74
2022/06/20 03:53:07;;;;;;;8.25;6.78;;;14.90;99.90;;;;;;5075759;28;20040;-73
2022/06/20 03:55:41;;;;;;;9.95;8.60;;;15.20;99.90;;;;;;5076144;28;20040;-74
2022/06/20 03:58:15;;;;;;;6.75;5.57;;;16.10;99.90;;;;;;5075858;28;20048;-74
2022/06/20 04:00:47;;;;;;;8.70;5.30;;;17.40;99.90;;;;;;5075536;28;20049;-74
2022/06/20 04:03:23;;;;;;;7.47;4.85;;;18.50;99.90;;;;;;5075966;28;20491;-74
2022/06/20 04:05:55;;;;;;;7.47;5.63;;;19.50;99.90;;;;;;5076265;28;20391;-75
2022/06/20 04:10:57;;;;;;;7.03;5.25;;;20.10;99.90;;;;;;5075960;28;20044;-73
2022/06/20 04:11:18;;;;;;;6.60;5.15;;;20.70;99.90;;;;;;5081450;28;20472;-74
2022/06/20 04:13:55;;;;;;;6.97;4.88;;;21.30;99.90;;;;;;5061791;28;20037;-74
2022/06/20 04:16:26;;;;;;;8.32;5.18;;;21.70;99.90;;;;;;5058932;28;20036;-74
2022/06/20 04:19:04;;;;;;;6.25;4.63;;;22.00;99.90;;;;;;5055650;28;20049;-75
2022/06/20 04:21:38;;;;;;;5.88;4.30;;;21.90;99.90;;;;;;5038452;28;20048;-74
2022/06/20 04:24:14;;;;;;;10.05;4.80;;;22.60;99.90;;;;;;5055165;28;20041;-74
2022/06/20 04:26:47;;;;;;;5.40;4.30;;;22.80;99.90;;;;;;5055102;28;20049;-74
2022/06/20 04:29:18;;;;;;;8.25;4.03;;;23.70;99.90;;;;;;5063490;28;20074;-74
2022/06/20 04:31:51;;;;;;;5.82;4.03;;;24.30;99.90;;;;;;5075218;28;20036;-74
2022/06/20 04:34:23;;;;;;;5.78;4.00;;;24.50;99.90;;;;;;5075105;28;20068;-75
2022/06/20 04:36:55;;;;;;;6.53;3.72;;;25.20;99.90;;;;;;5074829;28;20040;-75
2022/06/20 04:39:28;;;;;;;6.47;4.18;;;25.20;99.90;;;;;;5075192;28;20049;-73
2022/06/20 04:42:02;;;;;;;6.93;4.00;;;25.30;99.90;;;;;;5075737;28;20029;-74
2022/06/20 04:44:37;;;;;;;6.82;4.75;;;25.40;99.90;;;;;;5074740;28;20041;-74
2022/06/20 04:47:14;;;;;;;13.45;4.38;;;25.70;99.90;;;;;;5075040;28;20098;-75
2022/06/20 04:49:43;;;;;;;15.43;4.68;;;26.00;99.90;;;;;;5074098;28;20102;-75
2022/06/20 04:52:14;;;;;;;8.27;4.35;;;26.40;99.90;;;;;;5074052;28;20066;-74
2022/06/20 04:54:41;;;;;;;12.85;5.55;;;26.50;99.90;;;;;;5074856;28;20036;-74
2022/06/20 04:57:12;;;;;;;10.60;5.93;;;26.50;99.90;;;;;;5074584;28;20037;-76
2022/06/20 04:59:39;;;;;;;9.98;4.97;;;26.80;99.90;;;;;;5074538;28;20108;-75
2022/06/20 05:02:14;;;;;;;7.35;4.20;;;27.30;99.90;;;;;;5074369;28;20053;-74
2022/06/20 05:04:46;;;;;;;13.55;5.63;;;27.70;99.90;;;;;;5061924;28;20036;-75
2022/06/20 05:07:18;;;;;;;6.70;4.68;;;27.90;99.90;;;;;;5056328;28;20051;-74
2022/06/20 05:09:52;;;;;;;6.57;4.25;;;28.00;99.90;;;;;;5073941;28;20044;-74
2022/06/20 05:12:25;;;;;;;10.80;4.97;;;28.50;99.90;;;;;;5074285;28;20083;-75
2022/06/20 05:14:59;;;;;;;10.98;4.75;;;29.10;99.90;;;;;;5074564;28;20044;-75
2022/06/20 05:17:30;;;;;;;6.50;3.60;;;28.90;99.90;;;;;;5073468;28;20379;-75
2022/06/20 05:20:03;;;;;;;8.07;4.40;;;29.00;99.60;;;;;;5072838;28;20091;-75
2022/06/20 05:22:35;;;;;;;10.68;4.45;;;29.30;99.00;;;;;;5070000;28;20105;-75
2022/06/20 05:25:08;;;;;;;9.18;5.70;;;29.70;98.20;;;;;;5074906;28;20048;-75
2022/06/20 05:27:48;;;;;;;7.57;3.92;;;29.70;97.40;;;;;;5072324;28;20028;-75
2022/06/20 05:30:19;;;;;;;5.25;4.47;;;29.80;97.00;;;;;;5073577;28;20090;-75
2022/06/20 05:32:52;;;;;;;8.32;4.57;;;29.90;97.10;;;;;;5073602;28;20094;-75
2022/06/20 05:35:25;;;;;;;6.32;4.05;;;30.50;95.80;;;;;;5072779;28;20044;-75
2022/06/20 05:37:56;;;;;;;9.18;5.72;;;30.90;95.30;;;;;;5073534;28;20045;-75
2022/06/20 05:40:29;;;;;;;6.25;4.38;;;31.00;94.10;;;;;;5073822;28;20071;-75
2022/06/20 05:42:56;;;;;;;6.80;4.88;;;30.60;93.60;;;;;;5073229;28;20472;-75
2022/06/20 05:45:27;;;;;;;6.32;4.57;;;30.40;93.30;;;;;;5072918;28;20044;-75
2022/06/20 05:47:58;;;;;;;7.30;4.35;;;30.50;93.10;;;;;;5073169;28;20064;-74
2022/06/20 05:50:39;;;;;;;8.05;6.57;;;30.30;93.20;;;;;;5073536;28;20040;-75
2022/06/20 05:53:14;;;;;;;9.45;5.07;;;30.40;93.10;;;;;;5073194;28;20041;-75
2022/06/20 05:55:45;;;;;;;7.55;5.22;;;29.80;93.70;;;;;;5073452;28;20048;-75
2022/06/20 05:58:19;;;;;;;6.93;4.68;;;29.60;94.10;;;;;;5073362;28;20534;-76
2022/06/20 06:00:49;;;;;;;7.72;5.20;;;29.60;94.50;;;;;;5072543;28;20470;-75
2022/06/20 06:03:22;;;;;;;9.20;5.15;;;29.70;94.60;;;;;;5072699;28;20044;-76
2022/06/20 06:05:55;;;;;;;8.77;5.00;;;29.50;95.20;;;;;;5073624;28;20075;-75
2022/06/20 06:08:28;;;;;;;9.73;5.55;;;29.50;95.00;;;;;;5072697;28;20473;-75
2022/06/20 06:11:03;;;;;;;6.75;4.97;;;29.30;95.80;;;;;;5072131;28;20055;-76
2022/06/20 06:13:38;;;;;;;6.85;5.43;;;28.70;96.80;;;;;;5073299;28;20040;-74
2022/06/20 06:19:02;;;;;;;7.85;5.63;;;28.30;97.60;;;;;;5072593;28;20098;-75
2022/06/20 06:21:33;;;;;;;9.50;5.40;;;28.20;97.70;;;;;;5061042;28;20418;-75
2022/06/20 06:24:01;;;;;;;7.95;4.93;;;28.00;97.90;;;;;;5072672;28;20071;-75
2022/06/20 06:26:29;;;;;;;7.03;5.40;;;27.70;98.00;;;;;;5070173;28;20074;-75
2022/06/20 06:28:57;;;;;;;10.02;6.18;;;27.60;98.80;;;;;;5063232;28;20544;-75
2022/06/20 06:31:27;;;;;;;10.40;5.90;;;27.70;98.60;;;;;;5054612;28;20495;-76
2022/06/20 06:34:00;;;;;;;8.57;5.40;;;27.60;98.70;;;;;;5067166;28;20036;-76
2022/06/20 06:36:36;;;;;;;7.20;5.97;;;27.40;99.10;;;;;;5072581;28;20111;-76
2022/06/20 06:39:09;;;;;;;6.43;4.95;;;27.50;99.10;;;;;;5072537;28;20040;-75
2022/06/20 06:41:40;;;;;;;7.88;4.80;;;27.20;98.90;;;;;;5073137;28;20036;-76
2022/06/20 06:44:28;;;;;;;12.23;4.70;;;26.80;99.50;;;;;;5071608;28;20106;-76
2022/06/20 06:46:57;;;;;;;5.75;3.80;;;26.60;99.90;;;;;;5073551;28;20041;-76
2022/06/20 06:49:31;;;;;;;5.95;4.50;;;26.60;99.20;;;;;;5073347;28;20044;-76
2022/06/20 06:52:07;;;;;;;10.23;4.77;;;26.70;99.50;;;;;;5072989;28;20033;-76
2022/06/20 06:54:53;;;;;;;4.97;4.00;;;27.00;99.30;;;;;;5068598;28;20044;-77
2022/06/20 06:57:27;;;;;;;8.25;4.95;;;27.50;98.10;;;;;;5071617;28;20398;-77
2022/06/20 07:00:13;;;;;;;7.32;4.20;;;28.00;97.70;;;;;;5073005;28;20048;-76
2022/06/20 07:02:42;;;;;;;;;;;27.90;97.10;;;;;;5073282;28;20040;-76
2022/06/20 07:05:17;;;;;;;7.72;5.05;;;27.60;97.80;;;;;;5071443;28;20026;-75
2022/06/20 07:07:50;;;;;;;7.20;4.75;;;27.50;98.10;;;;;;5066354;28;20045;-76
2022/06/20 07:10:24;;;;;;;9.75;4.90;;;27.30;98.50;;;;;;5076984;28;20040;-77
2022/06/20 07:12:57;;;;;;;7.00;5.30;;;27.30;97.50;;;;;;5082823;28;20052;-76
2022/06/20 07:15:26;;;;;;;12.07;5.78;;;27.40;98.10;;;;;;5084355;28;20044;-76
2022/06/20 07:17:57;;;;;;;8.75;5.15;;;27.60;97.20;;;;;;5084603;28;20037;-75
2022/06/20 07:20:29;;;;;;;11.38;5.43;;;27.60;97.20;;;;;;5080660;28;20037;-76
2022/06/20 07:23:01;;;;;;;9.65;4.88;;;27.80;97.40;;;;;;5059339;28;20049;-75
2022/06/20 07:25:35;;;;;;;6.78;4.57;;;27.80;97.10;;;;;;5074284;28;20045;-75
2022/06/20 07:28:12;;;;;;;7.03;4.63;;;27.60;96.70;;;;;;5077523;28;20463;-76
2022/06/20 07:30:45;;;;;;;8.07;5.20;;;27.70;97.00;;;;;;5076106;28;20070;-76
2022/06/20 07:33:18;;;;;;;8.18;4.90;;;27.80;98.10;;;;;;5075822;28;20043;-76
2022/06/20 07:35:49;;;;;;;8.60;4.82;;;27.90;98.90;;;;;;5040770;28;20499;-76
2022/06/20 07:38:22;;;;;;;12.52;4.70;;;27.90;97.80;;;;;;5037889;28;20053;-76
2022/06/20 07:40:53;;;;;;;6.78;5.30;;;28.00;97.00;;;;;;5074602;28;20048;-76
2022/06/20 07:43:24;;;;;;;8.45;5.07;;;28.00;95.20;;;;;;5055470;28;20056;-76
2022/06/20 07:45:53;;;;;;;6.47;4.60;;;28.00;95.10;;;;;;5058921;28;20510;-76
2022/06/20 07:48:26;;;;;;;10.82;5.25;;;28.00;95.40;;;;;;5076880;28;20382;-76
2022/06/20 07:50:58;;;;;;;8.85;5.18;;;28.00;94.10;;;;;;5075272;28;20040;-75
2022/06/20 07:53:37;;;;;;;8.43;5.00;;;28.00;94.10;;;;;;5076556;28;20044;-76
2022/06/20 07:56:11;;;;;;;11.98;5.32;;;28.20;94.50;;;;;;5077909;28;20119;-75
2022/06/20 07:58:43;;;;;;;11.07;5.45;;;28.40;94.90;;;;;;5077594;28;20487;-76
2022/06/20 08:01:17;;;;;;;9.77;5.80;;;28.50;94.70;;;;;;5064859;28;20492;-77
2022/06/20 08:03:50;;;;;;;7.55;6.10;;;28.70;94.50;;;;;;5074728;28;20086;-77
2022/06/20 08:06:36;;;;;;;10.13;5.88;;;28.60;94.40;;;;;;5078694;28;20053;-77
2022/06/20 08:09:11;;;;;;;11.23;6.38;;;28.50;94.80;;;;;;5076715;28;20040;-77
2022/06/20 08:11:46;;;;;;;16.98;6.00;;;28.50;95.60;;;;;;5049204;28;20040;-78
2022/06/20 08:14:24;;;;;;;13.32;6.43;;;28.60;96.20;;;;;;5076384;28;20112;-77
2022/06/20 08:17:01;;;;;;;13.68;7.68;;;28.70;96.00;;;;;;5071758;28;20033;-79
2022/06/20 08:19:31;;;;;;;16.85;7.20;;;28.90;95.00;;;;;;5070410;28;20560;-78
2022/06/20 08:22:03;;;;;;;14.15;7.70;;;29.20;94.70;;;;;;5077313;28;20052;-78
2022/06/20 08:24:36;;;;;;;14.20;7.60;;;29.50;93.50;;;;;;5074879;28;20040;-78
2022/06/20 08:27:07;;;;;;;12.38;6.65;;;29.70;93.40;;;;;;5066340;28;20037;-77
2022/06/20 08:29:38;;;;;;;18.20;8.00;;;29.70;93.00;;;;;;5070326;28;20128;-76
2022/06/20 08:32:14;;;;;;;14.98;9.90;;;29.80;93.20;;;;;;5077989;28;20348;-77
2022/06/20 08:34:48;;;;;;;19.05;9.32;;;29.80;93.00;;;;;;5077148;28;20059;-78
2022/06/20 08:37:22;;;;;;;13.45;8.18;;;30.10;93.10;;;;;;5077300;28;20123;-77
2022/06/20 08:39:58;;;;;;;12.50;7.07;;;30.10;93.10;;;;;;5064430;28;20045;-77
2022/06/20 08:43:00;;;;;;;13.00;8.63;;;30.20;93.00;;;;;;5044971;28;20098;-77
2022/06/20 08:45:53;;;;;;;14.45;9.52;;;30.30;92.20;;;;;;5076186;28;20128;-76
2022/06/20 08:48:50;;;;;;;12.52;6.95;;;30.20;91.90;;;;;;5057295;28;20461;-76
2022/06/20 08:52:07;;;;;;;12.52;7.75;;;30.30;91.70;;;;;;5075467;28;20040;-79
2022/06/20 08:55:04;;;;;;;13.15;8.63;;;30.50;91.90;;;;;;5079441;28;20044;-78
2022/06/20 08:57:34;;;;;;;;;;;30.60;92.20;;;;;;5080387;28;20494;-76
2022/06/20 09:00:09;;;;;;;8.90;6.63;;;30.60;90.60;;;;;;5057665;28;19931;-77
2022/06/20 09:03:06;;;;;;;10.73;7.10;;;30.60;90.20;;;;;;5069867;28;20036;-77
2022/06/20 09:05:57;;;;;;;11.93;7.90;;;30.50;90.30;;;;;;5058289;28;20045;-77
2022/06/20 09:08:47;;;;;;;9.27;6.68;;;30.70;90.00;;;;;;5083477;28;20037;-78
2022/06/20 09:11:27;;;;;;;11.45;6.78;;;30.70;88.80;;;;;;5080584;28;20040;-78
2022/06/20 09:14:15;;;;;;;15.35;6.65;;;30.50;90.20;;;;;;5076284;28;20044;-77
2022/06/20 09:16:52;;;;;;;12.82;7.88;;;30.70;89.40;;;;;;5058807;28;20158;-78
2022/06/20 09:19:32;;;;;;;12.02;7.20;;;30.90;88.00;;;;;;5076560;28;20048;-78
2022/06/20 09:22:11;;;;;;;16.85;10.77;;;31.10;88.20;;;;;;5058148;28;20174;-77
2022/06/20 09:24:53;;;;;;;14.27;7.60;;;31.20;86.70;;;;;;5071293;28;20439;-77
2022/06/20 09:27:28;;;;;;;15.38;10.00;;;31.20;85.40;;;;;;5058070;28;20044;-77
2022/06/20 09:30:06;;;;;;;16.60;7.88;;;31.30;85.80;;;;;;5073599;28;20052;-75
2022/06/20 09:33:10;;;;;;;25.65;9.10;;;31.40;84.70;;;;;;5076859;28;20604;-78
2022/06/20 09:35:59;;;;;;;14.10;7.32;;;31.40;84.40;;;;;;5061932;28;20048;-78
2022/06/20 09:38:41;;;;;;;14.60;8.73;;;31.20;83.10;;;;;;5081421;28;20045;-77
2022/06/20 09:41:19;;;;;;;12.07;7.10;;;31.00;84.50;;;;;;5082784;28;20044;-76
2022/06/20 09:44:00;;;;;;;14.77;7.97;;;31.10;83.40;;;;;;5068004;28;20045;-76
2022/06/20 09:46:36;;;;;;;16.15;7.85;;;30.90;82.10;;;;;;5081327;28;20085;-76
2022/06/20 09:49:18;;;;;;;14.65;8.10;;;30.80;83.60;;;;;;5082005;28;20040;-77
2022/06/20 09:51:55;;;;;;;22.45;8.27;;;30.90;82.30;;;;;;5075579;28;20155;-76
2022/06/20 09:54:30;;;;;;;18.17;9.25;;;30.90;81.60;;;;;;5074405;28;20040;-77
2022/06/20 09:57:10;;;;;;;15.35;9.23;;;30.90;82.00;;;;;;5074843;28;20526;-76
2022/06/20 09:59:49;;;;;;;17.05;11.73;;;31.10;83.60;;;;;;5073711;28;20492;-76
2022/06/20 10:02:29;;;;;;;17.00;10.25;;;31.10;84.30;;;;;;5056076;28;20062;-77
2022/06/20 10:05:06;;;;;;;16.88;8.82;;;31.00;83.00;;;;;;5074684;28;20036;-76
2022/06/20 10:07:42;;;;;;;13.55;7.78;;;31.00;84.90;;;;;;5074320;28;20058;-77
2022/06/20 10:10:16;;;;;;;13.73;7.70;;;30.90;83.20;;;;;;5074566;28;20102;-76
2022/06/20 10:12:51;;;;;;;12.02;7.50;;;30.90;83.50;;;;;;5073706;28;20044;-77
2022/06/20 10:15:29;;;;;;;14.98;7.82;;;30.90;83.50;;;;;;5055791;28;20163;-76
2022/06/20 10:18:04;;;;;;;15.10;8.40;;;30.90;84.50;;;;;;5073961;28;20098;-77
2022/06/20 10:20:40;;;;;;;22.77;12.63;;;31.10;83.30;;;;;;5074395;28;20094;-77
2022/06/20 10:23:30;;;;;;;20.33;10.05;;;31.20;81.00;;;;;;5074227;28;20043;-76
2022/06/20 10:26:24;;;;;;;17.88;9.05;;;31.30;80.80;;;;;;5074138;28;20045;-77
2022/06/20 10:29:00;;;;;;;17.45;9.85;;;31.40;80.90;;;;;;5073846;28;20453;-77
2022/06/20 10:31:41;;;;;;;13.77;8.05;;;31.50;79.70;;;;;;5073930;28;20094;-76
2022/06/20 10:34:14;;;;;;;14.38;7.78;;;31.60;78.30;;;;;;5073476;28;20044;-76
2022/06/20 10:36:53;;;;;;;15.55;7.68;;;31.70;75.20;;;;;;5076950;28;20040;-75
2022/06/20 10:39:30;;;;;;;20.92;8.55;;;31.70;74.70;;;;;;5081226;28;20040;-76
2022/06/20 10:42:09;;;;;;;16.13;8.02;;;31.70;75.20;;;;;;5080769;28;20438;-77
2022/06/20 10:44:50;;;;;;;16.88;8.25;;;31.80;76.20;;;;;;5059166;28;20044;-76
2022/06/20 10:47:26;;;;;;;19.15;9.00;;;31.90;76.70;;;;;;5075578;28;20044;-77
2022/06/20 10:50:08;;;;;;;18.58;9.38;;;31.90;76.30;;;;;;5078651;28;20037;-77
2022/06/20 10:52:56;;;;;;;16.80;8.40;;;32.20;76.50;;;;;;5059694;28;20090;-77
2022/06/20 10:55:36;;;;;;;23.88;9.60;;;32.30;77.30;;;;;;5079221;28;20040;-77
2022/06/20 10:58:15;;;;;;;18.33;8.43;;;32.40;75.10;;;;;;5072454;28;20055;-77
2022/06/20 11:00:46;;;;;;;15.63;7.45;;;32.30;74.10;;;;;;5084490;28;20079;-77
2022/06/20 11:03:44;;;;;;;13.82;8.45;;;32.20;71.00;;;;;;5084310;28;20045;-79
2022/06/20 11:06:21;;;;;;;10.75;5.78;;;32.10;65.40;;;;;;5083266;28;20055;-76
2022/06/20 11:08:54;;;;;;;14.43;7.75;;;32.00;64.80;;;;;;5078215;28;20090;-77
2022/06/20 11:11:29;;;;;;;15.68;6.88;;;31.90;65.90;;;;;;5078095;28;20094;-77
2022/06/20 11:14:01;;;;;;;;;;;32.00;66.30;;;;;;5060021;28;20098;-76
2022/06/20 11:16:38;;;;;;;13.90;6.57;;;32.10;65.00;;;;;;5077621;28;20359;-76
2022/06/20 11:19:24;;;;;;;12.85;6.93;;;32.20;64.70;;;;;;5078354;28;20402;-77
2022/06/20 11:22:04;;;;;;;9.13;6.30;;;32.20;63.60;;;;;;5077437;28;20148;-77
2022/06/20 11:24:45;;;;;;;13.60;7.25;;;32.10;61.80;;;;;;5077577;28;20545;-76
2022/06/20 11:27:37;;;;;;;8.80;5.97;;;32.10;63.90;;;;;;5077115;28;20483;-77
2022/06/20 11:30:13;;;;;;;11.02;7.00;;;32.10;60.90;;;;;;5076775;28;20040;-77
2022/06/20 11:32:55;;;;;;;10.85;6.80;;;32.10;61.40;;;;;;5076703;28;20036;-76
2022/06/20 11:35:33;;;;;;;10.23;6.25;;;32.10;59.30;;;;;;5077348;28;20044;-77
2022/06/20 11:38:21;;;;;;;13.63;6.70;;;31.90;58.20;;;;;;5076865;28;20123;-77
2022/06/20 11:40:57;;;;;;;10.18;5.70;;;31.90;58.90;;;;;;5080013;28;20479;-76
2022/06/20 11:44:06;;;;;;;10.23;6.50;;;31.80;58.50;;;;;;5080487;28;20040;-77
2022/06/20 11:47:03;;;;;;;11.77;6.43;;;31.60;59.40;;;;;;5060145;28;20344;-76
2022/06/20 11:49:53;;;;;;;10.57;6.63;;;31.70;60.30;;;;;;5076412;28;20094;-77
2022/06/20 11:52:27;;;;;;;9.73;7.05;;;32.00;58.10;;;;;;5076652;28;20045;-75
2022/06/20 11:55:05;;;;;;;10.73;7.80;;;32.10;57.50;;;;;;5060328;28;20048;-77
2022/06/20 11:57:39;;;;;;;10.15;6.00;;;32.10;57.10;;;;;;5076491;28;20037;-77
2022/06/20 12:00:14;;;;;;;10.10;6.18;;;32.00;56.80;;;;;;5075321;28;20074;-78
2022/06/20 12:02:53;;;;;;;6.32;5.13;;;32.10;58.40;;;;;;5076471;28;20055;-77
2022/06/20 12:05:32;;;;;;;7.80;4.70;;;32.00;58.70;;;;;;5077146;28;20040;-78
2022/06/20 12:08:10;;;;;;;10.15;6.72;;;31.90;58.70;;;;;;5077085;28;20040;-77
2022/06/20 12:10:42;;;;;;;7.38;5.15;;;31.90;58.60;;;;;;5068397;28;20163;-77
2022/06/20 12:13:24;;;;;;;6.78;5.82;;;31.80;59.20;;;;;;5080438;28;20070;-77
2022/06/20 12:15:58;;;;;;;7.20;4.93;;;31.70;59.70;;;;;;5077816;28;20040;-77
2022/06/20 12:23:18;;;;;;;6.80;5.13;;;31.50;60.50;;;;;;5059516;28;20041;-77
2022/06/20 12:24:23;;;;;;;8.20;6.20;;;31.70;60.60;;;;;;5079965;28;20043;-76
2022/06/20 12:26:52;;;;;;;8.65;5.78;;;31.90;61.40;;;;;;5095697;28;20055;-76
2022/06/20 12:29:22;;;;;;;7.72;6.22;;;32.00;59.80;;;;;;5090693;28;20106;-76
2022/06/20 12:31:52;;;;;;;12.98;6.63;;;32.10;60.90;;;;;;5087525;28;20086;-77
2022/06/20 12:34:37;;;;;;;7.05;6.10;;;32.20;62.00;;;;;;5076759;28;20533;-77
2022/06/20 12:37:15;;;;;;;9.60;6.18;;;32.10;61.20;;;;;;5078279;28;20580;-77
2022/06/20 12:39:49;;;;;;;8.15;6.43;;;32.00;62.40;;;;;;5078138;28;20041;-77
2022/06/20 12:42:26;;;;;;;7.38;5.97;;;31.90;63.00;;;;;;5077471;28;20087;-77
2022/06/20 12:45:12;;;;;;;7.60;5.45;;;31.90;62.50;;;;;;5076266;28;20063;-77
2022/06/20 12:48:07;;;;;;;9.13;6.47;;;31.90;61.10;;;;;;5077292;28;20124;-77
2022/06/20 12:50:42;;;;;;;9.50;7.18;;;31.90;62.20;;;;;;5075544;28;20056;-77
2022/06/20 12:53:26;;;;;;;8.70;6.90;;;32.10;62.00;;;;;;5079421;28;20041;-78
2022/06/20 12:56:07;;;;;;;14.73;6.40;;;32.20;60.40;;;;;;5081498;28;20122;-77
2022/06/20 12:59:13;;;;;;;13.15;7.85;;;32.20;60.50;;;;;;5065168;28;20112;-78
2022/06/20 13:01:44;;;;;;;12.82;7.72;;;32.20;61.90;;;;;;5060056;28;20106;-77
2022/06/20 13:04:48;;;;;;;12.05;6.72;;;32.20;61.30;;;;;;5077785;28;20060;-77
2022/06/20 13:07:46;;;;;;;9.23;6.75;;;32.10;61.80;;;;;;5076541;28;20040;-77
2022/06/20 13:10:27;;;;;;;13.60;10.25;;;32.20;61.40;;;;;;5058087;28;20048;-77
2022/06/20 13:13:25;;;;;;;10.02;5.75;;;32.00;62.50;;;;;;5076144;28;20082;-76
2022/06/20 13:16:01;;;;;;;7.72;5.85;;;32.10;62.00;;;;;;5075719;28;20037;-79
2022/06/20 13:18:49;;;;;;;8.43;5.30;;;32.10;61.10;;;;;;5077240;28;20037;-77
2022/06/20 13:21:22;;;;;;;10.25;5.30;;;32.20;62.10;;;;;;5077086;28;20044;-76
2022/06/20 13:24:00;;;;;;;8.77;5.47;;;32.20;60.70;;;;;;5074963;28;20037;-77
2022/06/20 13:26:36;;;;;;;7.95;5.22;;;32.20;61.50;;;;;;5058035;28;20040;-77
2022/06/20 13:29:22;;;;;;;7.68;5.10;;;32.30;61.80;;;;;;5075930;28;20044;-77
2022/06/20 13:31:55;;;;;;;9.05;6.32;;;32.30;60.00;;;;;;5076318;28;20040;-76
2022/06/20 13:34:33;;;;;;;9.77;6.40;;;32.30;61.10;;;;;;5076116;28;20044;-77